Time;durP1;ratioP1;P1;durP2;ratioP2;P2;SDS_P1;SDS_P2;PMS_P1;PMS_P2;Temp;Humidity;BMP_temperature;BMP_pressure;BME280_temperature;BME280_humidity;BME280_pressure;Samples;Min_cycle;Max_cycle;Signal;HPM_P1;HPM_P2
2023/07/18 00:01:10;;;;;;;1.88;1.23;;;;;;;20.24;100.00;96824.75;5077356;28;20200;-67
2023/07/18 00:03:36;;;;;;;6.07;1.70;;;;;;;20.23;100.00;96828.47;5077060;28;20204;-67
2023/07/18 00:06:03;;;;;;;3.78;1.63;;;;;;;20.47;100.00;96830.28;5076376;28;20196;-67
2023/07/18 00:08:31;;;;;;;5.95;1.50;;;;;;;20.74;100.00;96828.94;5076637;28;21518;-67
2023/07/18 00:10:57;;;;;;;4.32;1.90;;;;;;;20.31;100.00;96831.69;5077472;28;20235;-67
2023/07/18 00:13:24;;;;;;;5.13;1.40;;;;;;;20.31;100.00;96833.53;5075902;28;20578;-67
2023/07/18 00:15:51;;;;;;;4.13;1.83;;;;;;;20.49;100.00;96829.00;5076846;28;20219;-67
2023/07/18 00:18:21;;;;;;;2.47;1.48;;;;;;;20.49;100.00;96834.38;5076579;28;20204;-67
2023/07/18 00:20:48;;;;;;;3.45;1.90;;;;;;;20.66;100.00;96834.53;5076730;28;20227;-67
2023/07/18 00:23:14;;;;;;;3.20;1.90;;;;;;;20.53;100.00;96834.72;5076387;28;20432;-67
2023/07/18 00:25:42;;;;;;;5.50;1.55;;;;;;;20.62;100.00;96841.41;5077626;28;20196;-67
2023/07/18 00:28:09;;;;;;;3.03;1.60;;;;;;;20.50;100.00;96837.84;5075945;28;20204;-67
2023/07/18 00:30:35;;;;;;;3.70;1.90;;;;;;;20.57;100.00;96834.06;5076400;28;21141;-67
2023/07/18 00:33:03;;;;;;;3.22;1.50;;;;;;;20.53;100.00;96832.03;5076533;28;20294;-67
2023/07/18 00:35:29;;;;;;;2.53;1.45;;;;;;;20.43;100.00;96837.09;5076461;28;21095;-67
2023/07/18 00:37:57;;;;;;;1.60;1.25;;;;;;;20.34;100.00;96835.75;5076055;28;20203;-67
2023/07/18 00:40:23;;;;;;;4.10;1.50;;;;;;;20.27;100.00;96829.66;5076545;28;20232;-67
2023/07/18 00:42:51;;;;;;;3.78;1.30;;;;;;;20.45;100.00;96838.50;5076922;28;20208;-67
2023/07/18 00:45:18;;;;;;;2.00;1.38;;;;;;;20.15;100.00;96834.13;5076706;28;20200;-67
2023/07/18 00:47:46;;;;;;;3.28;1.70;;;;;;;20.36;100.00;96837.16;5075681;28;20207;-67
2023/07/18 00:50:16;;;;;;;5.85;1.58;;;;;;;20.48;100.00;96843.44;5076533;28;20978;-67
2023/07/18 00:52:45;;;;;;;3.28;2.05;;;;;;;20.37;100.00;96836.13;5076123;28;20210;-67
2023/07/18 00:55:13;;;;;;;4.85;1.38;;;;;;;20.43;100.00;96829.88;5076607;28;20234;-67
2023/07/18 00:57:41;;;;;;;2.35;1.30;;;;;;;20.54;100.00;96821.09;5075346;28;20200;-67
2023/07/18 01:00:12;;;;;;;3.35;1.60;;;;;;;20.76;100.00;96822.31;5076256;28;20223;-67
2023/07/18 01:02:39;;;;;;;5.32;1.15;;;;;;;20.26;100.00;96819.97;5075848;28;20280;-67
2023/07/18 01:05:07;;;;;;;6.57;1.48;;;;;;;19.84;100.00;96819.97;5076397;28;20200;-67
2023/07/18 01:07:34;;;;;;;3.17;1.92;;;;;;;19.43;100.00;96825.06;5075578;28;20208;-67
2023/07/18 01:10:17;;;;;;;3.55;1.92;;;;;;;19.91;100.00;96813.56;5076074;28;20223;-67
2023/07/18 01:12:43;;;;;;;8.75;1.70;;;;;;;19.16;100.00;96814.78;5074224;28;20216;-67
2023/07/18 01:15:12;;;;;;;6.00;1.80;;;;;;;19.47;100.00;96809.41;5076860;28;20224;-67
2023/07/18 01:17:42;;;;;;;2.15;1.40;;;;;;;19.37;100.00;96803.72;5075598;28;20281;-67
2023/07/18 01:20:14;;;;;;;6.65;1.90;;;;;;;19.70;100.00;96802.41;5076550;28;20219;-67
2023/07/18 01:22:43;;;;;;;7.03;1.98;;;;;;;19.71;100.00;96793.34;5076129;28;20243;-67
2023/07/18 01:25:14;;;;;;;2.60;1.65;;;;;;;19.61;100.00;96801.06;5077778;28;20210;-67
2023/07/18 01:27:41;;;;;;;3.97;1.60;;;;;;;18.98;100.00;96798.66;5079583;28;20704;-67
2023/07/18 01:30:09;;;;;;;2.40;1.33;;;;;;;19.09;100.00;96790.78;5080524;28;20231;-67
2023/07/18 01:32:35;;;;;;;3.70;1.27;;;;;;;19.23;100.00;96791.50;5079338;28;20204;-67
2023/07/18 01:35:05;;;;;;;2.28;1.17;;;;;;;19.58;100.00;96786.25;5079453;28;20207;-67
2023/07/18 01:37:32;;;;;;;2.70;1.27;;;;;;;19.42;100.00;96785.19;5079869;28;20204;-67
2023/07/18 01:40:00;;;;;;;1.35;1.20;;;;;;;19.39;100.00;96789.13;5079845;28;20220;-67
2023/07/18 01:42:27;;;;;;;2.80;1.55;;;;;;;19.60;100.00;96789.56;5079773;28;20706;-67
2023/07/18 01:44:53;;;;;;;2.17;1.40;;;;;;;19.68;100.00;96793.81;5079905;28;20281;-67
2023/07/18 01:47:20;;;;;;;3.08;1.48;;;;;;;19.54;100.00;96786.94;5079544;28;21074;-67
2023/07/18 01:49:47;;;;;;;2.97;1.38;;;;;;;19.44;100.00;96788.47;5079569;28;20226;-67
2023/07/18 01:52:13;;;;;;;2.13;1.40;;;;;;;19.45;100.00;96784.75;5079299;28;20200;-67
2023/07/18 01:54:40;;;;;;;5.25;1.60;;;;;;;19.54;100.00;96786.09;5079995;28;20200;-67
2023/07/18 01:57:07;;;;;;;3.88;1.60;;;;;;;20.02;100.00;96791.44;5078940;28;20563;-67
2023/07/18 01:59:34;;;;;;;3.10;1.90;;;;;;;19.69;100.00;96782.06;5079378;28;20711;-67
2023/07/18 02:02:03;;;;;;;2.60;1.50;;;;;;;19.89;100.00;96788.84;5079739;28;20196;-67
2023/07/18 02:04:29;;;;;;;4.18;1.60;;;;;;;19.95;100.00;96785.34;5079143;28;20290;-67
2023/07/18 02:06:56;;;;;;;4.97;2.25;;;;;;;19.97;100.00;96791.28;5078392;28;20214;-67
2023/07/18 02:09:23;;;;;;;3.10;1.40;;;;;;;19.92;100.00;96785.78;5079508;28;20227;-67
2023/07/18 02:11:50;;;;;;;6.22;1.65;;;;;;;19.88;100.00;96787.25;5079063;28;20207;-67
2023/07/18 02:14:20;;;;;;;2.75;1.50;;;;;;;19.94;100.00;96783.69;5079052;28;20204;-67
2023/07/18 02:16:46;;;;;;;1.90;1.23;;;;;;;19.88;100.00;96781.88;5079258;28;20227;-67
2023/07/18 02:19:13;;;;;;;2.17;1.30;;;;;;;19.90;100.00;96778.97;5078722;28;20223;-67
2023/07/18 02:21:39;;;;;;;2.75;1.77;;;;;;;19.72;100.00;96777.09;5078683;28;20204;-67
2023/07/18 02:24:06;;;;;;;4.03;1.30;;;;;;;19.86;100.00;96781.28;5079003;28;20242;-67
2023/07/18 02:26:33;;;;;;;2.70;1.40;;;;;;;19.88;100.00;96787.25;5078443;28;21059;-67
2023/07/18 02:29:00;;;;;;;2.55;1.58;;;;;;;19.75;100.00;96781.19;5078191;28;20578;-67
2023/07/18 02:31:28;;;;;;;3.22;1.50;;;;;;;19.84;100.00;96778.00;5078686;28;20200;-67
2023/07/18 02:33:54;;;;;;;3.13;1.38;;;;;;;19.96;100.00;96775.44;5078735;28;20219;-67
2023/07/18 02:36:21;;;;;;;2.63;1.60;;;;;;;19.97;100.00;96775.25;5078072;28;20226;-67
2023/07/18 02:38:48;;;;;;;3.83;2.05;;;;;;;20.03;100.00;96771.66;5077608;28;20208;-67
2023/07/18 02:41:14;;;;;;;3.53;1.50;;;;;;;20.08;100.00;96779.84;5078832;28;20218;-67
2023/07/18 02:43:41;;;;;;;4.40;1.98;;;;;;;20.02;100.00;96771.88;5078556;28;20690;-67
2023/07/18 02:46:07;;;;;;;5.53;1.65;;;;;;;19.99;100.00;96775.81;5078516;28;20200;-67
2023/07/18 02:48:35;;;;;;;13.90;1.70;;;;;;;20.09;100.00;96770.78;5078340;28;20210;-67
2023/07/18 02:51:01;;;;;;;3.42;1.90;;;;;;;19.78;100.00;96775.38;5078260;28;20707;-67
2023/07/18 02:53:28;;;;;;;3.22;1.40;;;;;;;19.77;100.00;96779.94;5078041;28;20204;-67
2023/07/18 02:55:54;;;;;;;4.40;1.35;;;;;;;19.55;100.00;96779.72;5076066;28;20235;-67
2023/07/18 02:58:22;;;;;;;2.95;1.48;;;;;;;19.69;100.00;96774.03;5077821;28;20694;-67
2023/07/18 03:00:48;;;;;;;4.45;1.70;;;;;;;19.53;100.00;96782.63;5077929;28;20310;-67
2023/07/18 03:03:15;;;;;;;2.85;1.48;;;;;;;19.46;100.00;96781.03;5077653;28;21008;-67
2023/07/18 03:05:43;;;;;;;4.85;1.77;;;;;;;19.82;100.00;96774.72;5078520;28;20200;-67
2023/07/18 03:08:10;;;;;;;3.22;1.45;;;;;;;19.61;100.00;96780.50;5077171;28;20200;-67
2023/07/18 03:10:38;;;;;;;2.15;1.20;;;;;;;19.56;100.00;96773.34;5077825;28;21244;-67
2023/07/18 03:13:05;;;;;;;1.88;1.20;;;;;;;19.64;100.00;96788.06;5078342;28;20214;-67
2023/07/18 03:15:31;;;;;;;3.25;1.58;;;;;;;19.70;100.00;96789.88;5077799;28;20253;-67
2023/07/18 03:17:58;;;;;;;4.65;1.23;;;;;;;19.78;100.00;96783.41;5077459;28;20192;-67
2023/07/18 03:20:24;;;;;;;2.78;1.67;;;;;;;19.72;100.00;96792.31;5078020;28;20224;-67
2023/07/18 03:22:52;;;;;;;1.95;1.20;;;;;;;20.01;100.00;96792.47;5077265;28;20215;-67
2023/07/18 03:25:20;;;;;;;3.65;1.30;;;;;;;19.85;100.00;96786.84;5077216;28;20211;-67
2023/07/18 03:27:48;;;;;;;4.68;1.70;;;;;;;19.46;100.00;96786.38;5077075;28;20835;-67
2023/07/18 03:30:16;;;;;;;2.47;1.42;;;;;;;19.22;100.00;96780.00;5077681;28;20719;-67
2023/07/18 03:32:42;;;;;;;7.65;1.60;;;;;;;19.43;100.00;96779.63;5077290;28;20211;-67
2023/07/18 03:35:10;;;;;;;2.83;1.42;;;;;;;19.82;100.00;96777.41;5077358;28;20191;-67
2023/07/18 03:37:37;;;;;;;3.85;1.88;;;;;;;19.73;100.00;96773.38;5076542;28;20231;-67
2023/07/18 03:40:07;;;;;;;6.70;1.90;;;;;;;19.59;100.00;96784.44;5077645;28;20226;-67
2023/07/18 03:42:33;;;;;;;2.00;1.30;;;;;;;19.30;100.00;96777.06;5077168;28;20219;-67
2023/07/18 03:45:00;;;;;;;2.78;1.65;;;;;;;19.57;100.00;96779.28;5077178;28;20202;-67
2023/07/18 03:47:26;;;;;;;3.35;1.73;;;;;;;19.57;100.00;96773.94;5076406;28;20208;-67
2023/07/18 03:49:53;;;;;;;5.10;1.98;;;;;;;19.50;100.00;96771.53;5076570;28;20224;-67
2023/07/18 03:52:19;;;;;;;6.60;1.75;;;;;;;19.46;100.00;96767.66;5077525;28;20203;-67
2023/07/18 03:54:46;;;;;;;2.83;2.15;;;;;;;19.40;100.00;96765.88;5077693;28;20683;-67
2023/07/18 03:57:14;;;;;;;4.32;1.42;;;;;;;19.81;100.00;96764.25;5076076;28;20730;-67
2023/07/18 03:59:40;;;;;;;2.78;1.88;;;;;;;19.67;100.00;96762.75;5076316;28;21011;-67
2023/07/18 04:02:07;;;;;;;4.25;1.90;;;;;;;19.64;100.00;96769.34;5078196;28;20695;-67
2023/07/18 04:04:33;;;;;;;2.97;1.65;;;;;;;19.45;100.00;96768.69;5076913;28;20212;-67
2023/07/18 04:07:00;;;;;;;5.45;1.65;;;;;;;19.22;100.00;96760.47;5075825;28;20192;-67
2023/07/18 04:09:28;;;;;;;2.67;1.60;;;;;;;19.38;100.00;96767.94;5077386;28;20602;-67
2023/07/18 04:11:54;;;;;;;2.83;1.65;;;;;;;19.47;100.00;96767.44;5077329;28;20195;-67
2023/07/18 04:14:22;;;;;;;16.92;2.58;;;;;;;19.90;100.00;96758.38;5076669;28;20200;-67
2023/07/18 04:16:48;;;;;;;7.00;2.60;;;;;;;19.74;100.00;96767.00;5076787;28;20223;-67
2023/07/18 04:19:15;;;;;;;4.07;1.30;;;;;;;19.84;100.00;96756.59;5076397;28;20228;-67
2023/07/18 04:21:41;;;;;;;3.50;1.77;;;;;;;19.73;100.00;96765.38;5076639;28;20211;-67
2023/07/18 04:24:08;;;;;;;2.35;1.42;;;;;;;20.08;100.00;96757.63;5076893;28;21284;-67
2023/07/18 04:26:35;;;;;;;2.80;1.42;;;;;;;19.85;100.00;96754.75;5076645;28;20599;-67
2023/07/18 04:29:01;;;;;;;2.25;1.35;;;;;;;20.10;100.00;96759.03;5075416;28;20223;-67
2023/07/18 04:31:29;;;;;;;3.00;1.40;;;;;;;20.21;100.00;96755.59;5076968;28;20273;-67
2023/07/18 04:33:56;;;;;;;2.85;1.67;;;;;;;19.89;100.00;96755.94;5076542;28;20200;-67
2023/07/18 04:36:24;;;;;;;3.88;1.90;;;;;;;20.47;100.00;96766.00;5076423;28;20219;-67
2023/07/18 04:38:50;;;;;;;3.28;2.10;;;;;;;20.30;100.00;96754.25;5075677;28;20257;-67
2023/07/18 04:41:17;;;;;;;4.50;1.65;;;;;;;20.36;100.00;96756.03;5077049;28;20218;-67
2023/07/18 04:43:43;;;;;;;4.57;1.60;;;;;;;20.25;100.00;96757.63;5076829;28;20206;-67
2023/07/18 04:46:11;;;;;;;6.53;2.10;;;;;;;20.61;100.00;96762.09;5076695;28;20196;-67
2023/07/18 04:48:40;;;;;;;5.93;1.50;;;;;;;20.76;100.00;96757.19;5075779;28;20195;-67
2023/07/18 04:51:06;;;;;;;5.47;1.70;;;;;;;20.62;100.00;96756.53;5076811;28;20273;-67
2023/07/18 04:53:33;;;;;;;5.72;1.67;;;;;;;20.81;100.00;96760.00;5076242;28;20200;-67
2023/07/18 04:56:00;;;;;;;4.63;1.55;;;;;;;21.19;100.00;96756.72;5076655;28;20211;-67
2023/07/18 04:58:28;;;;;;;4.00;1.23;;;;;;;21.59;100.00;96749.72;5075752;28;20207;-67
2023/07/18 05:00:56;;;;;;;3.33;1.67;;;;;;;21.62;100.00;96751.94;5079574;28;20219;-67
2023/07/18 05:03:24;;;;;;;4.53;1.83;;;;;;;21.57;100.00;96755.31;5080491;28;20624;-67
2023/07/18 05:05:52;;;;;;;2.42;1.00;;;;;;;21.88;98.09;96752.28;5081521;28;20203;-67
2023/07/18 05:08:20;;;;;;;3.78;1.38;;;;;;;21.96;97.78;96753.78;5079709;28;20208;-67
2023/07/18 05:10:46;;;;;;;4.28;1.63;;;;;;;21.89;99.12;96753.09;5080027;28;20457;-67
2023/07/18 05:13:13;;;;;;;3.75;1.48;;;;;;;21.78;98.08;96754.75;5081019;28;20209;-67
2023/07/18 05:15:42;;;;;;;2.50;1.10;;;;;;;21.88;97.22;96748.78;5080643;28;20200;-67
2023/07/18 05:18:09;;;;;;;3.97;1.55;;;;;;;21.62;97.85;96751.94;5079695;28;20231;-67
2023/07/18 05:20:35;;;;;;;3.13;1.50;;;;;;;21.57;96.62;96751.81;5079832;28;20227;-67
2023/07/18 05:23:03;;;;;;;2.63;1.13;;;;;;;22.19;94.85;96749.22;5081090;28;20200;-67
2023/07/18 05:25:30;;;;;;;3.10;1.33;;;;;;;22.01;96.61;96745.84;5080485;28;20231;-67
2023/07/18 05:27:58;;;;;;;4.85;1.63;;;;;;;21.84;97.54;96739.56;5079438;28;20203;-67
2023/07/18 05:30:24;;;;;;;2.90;1.25;;;;;;;21.82;93.66;96747.84;5079334;28;20277;-67
2023/07/18 05:32:53;;;;;;;11.50;1.63;;;;;;;22.07;92.42;96749.22;5080534;28;20545;-67
2023/07/18 05:35:20;;;;;;;2.55;1.85;;;;;;;21.82;92.76;96749.72;5080863;28;20559;-67
2023/07/18 05:37:46;;;;;;;5.38;1.52;;;;;;;21.85;91.18;96741.19;5078963;28;20250;-67
2023/07/18 05:40:15;;;;;;;9.60;1.35;;;;;;;22.24;91.28;96742.06;5079117;28;20231;-67
2023/07/18 05:42:42;;;;;;;3.70;1.83;;;;;;;22.31;90.46;96742.81;5080502;28;20223;-67
2023/07/18 05:45:10;;;;;;;3.13;1.42;;;;;;;22.31;89.73;96747.34;5080072;28;20200;-67
2023/07/18 05:47:36;;;;;;;1.65;0.80;;;;;;;22.39;88.05;96744.28;5078668;28;20199;-67
2023/07/18 05:50:04;;;;;;;2.92;1.13;;;;;;;22.21;86.90;96741.72;5079754;28;20243;-67
2023/07/18 05:52:30;;;;;;;2.35;1.10;;;;;;;22.30;86.02;96741.16;5079781;28;20211;-67
2023/07/18 05:54:57;;;;;;;1.88;1.00;;;;;;;22.24;86.65;96733.22;5079048;28;20203;-67
2023/07/18 05:57:25;;;;;;;1.95;1.23;;;;;;;22.33;85.79;96735.31;5078662;28;20220;-67
2023/07/18 05:59:51;;;;;;;3.45;1.20;;;;;;;22.14;85.09;96731.13;5079549;28;20231;-67
2023/07/18 06:02:19;;;;;;;4.68;1.30;;;;;;;22.30;85.43;96729.59;5079059;28;20671;-67
2023/07/18 06:04:47;;;;;;;1.92;0.93;;;;;;;22.40;84.32;96714.53;5079195;28;20318;-67
2023/07/18 06:07:13;;;;;;;1.98;1.05;;;;;;;22.30;85.39;96719.69;5077893;28;20281;-67
2023/07/18 06:09:40;;;;;;;5.50;1.20;;;;;;;22.46;84.89;96718.91;5079341;28;20233;-67
2023/07/18 06:12:07;;;;;;;3.47;1.15;;;;;;;22.69;82.31;96719.66;5078535;28;20216;-67
2023/07/18 06:14:35;;;;;;;1.77;0.90;;;;;;;22.77;82.20;96721.97;5080402;28;20211;-67
2023/07/18 06:17:02;;;;;;;3.00;0.80;;;;;;;22.45;82.08;96719.97;5079388;28;20220;-67
2023/07/18 06:19:28;;;;;;;3.78;1.85;;;;;;;22.34;78.64;96720.84;5079294;28;20778;-67
2023/07/18 06:21:55;;;;;;;2.97;0.90;;;;;;;22.78;77.89;96717.38;5079827;28;20211;-68
2023/07/18 06:24:21;;;;;;;1.50;0.80;;;;;;;22.92;71.63;96724.91;5079355;28;20571;-68
2023/07/18 06:26:49;;;;;;;2.15;1.33;;;;;;;23.18;74.84;96718.97;5079530;28;20202;-67
2023/07/18 06:29:17;;;;;;;2.33;1.02;;;;;;;23.10;73.22;96718.53;5079293;28;20236;-67
2023/07/18 06:31:44;;;;;;;1.65;0.77;;;;;;;23.44;72.49;96711.03;5079678;28;20212;-67
2023/07/18 06:34:11;;;;;;;1.90;0.80;;;;;;;23.11;72.44;96702.16;5078744;28;20210;-67
2023/07/18 06:36:38;;;;;;;3.42;1.08;;;;;;;22.98;73.60;96698.94;5079391;28;20211;-67
2023/07/18 06:39:05;;;;;;;1.42;0.95;;;;;;;23.51;73.36;96695.56;5078935;28;20234;-67
2023/07/18 06:41:32;;;;;;;2.10;1.00;;;;;;;23.26;72.12;96701.63;5079614;28;20204;-67
2023/07/18 06:43:59;;;;;;;0.80;0.65;;;;;;;23.08;67.98;96696.47;5079810;28;20215;-67
2023/07/18 06:46:25;;;;;;;1.35;0.93;;;;;;;23.30;64.59;96689.31;5079311;28;20200;-67
2023/07/18 06:48:53;;;;;;;3.30;0.75;;;;;;;23.89;66.75;96695.59;5078087;28;20207;-67
2023/07/18 06:51:19;;;;;;;1.33;0.60;;;;;;;23.73;69.80;96692.97;5079830;28;20200;-68
2023/07/18 06:53:46;;;;;;;1.33;0.75;;;;;;;23.57;66.61;96689.19;5079954;28;20684;-67
2023/07/18 06:56:12;;;;;;;1.77;0.80;;;;;;;23.66;64.37;96690.41;5079150;28;20207;-67
2023/07/18 06:58:39;;;;;;;1.15;0.70;;;;;;;23.55;63.99;96694.00;5078134;28;20226;-67
2023/07/18 07:01:05;;;;;;;1.20;0.70;;;;;;;23.84;67.29;96690.19;5079343;28;20890;-67
2023/07/18 07:03:32;;;;;;;1.23;0.70;;;;;;;23.86;65.77;96685.34;5078357;28;20200;-68
2023/07/18 07:06:00;;;;;;;2.80;1.08;;;;;;;23.96;66.64;96685.47;5077339;28;20218;-67
2023/07/18 07:08:29;;;;;;;3.65;1.50;;;;;;;23.62;68.01;96677.69;5077833;28;20224;-68
2023/07/18 07:11:04;;;;;;;1.17;0.70;;;;;;;24.30;67.79;96682.44;5078847;28;20220;-67
2023/07/18 07:13:31;;;;;;;3.38;0.88;;;;;;;24.18;64.57;96678.22;5076198;28;20252;-67
2023/07/18 07:15:57;;;;;;;1.63;0.80;;;;;;;24.13;67.23;96675.47;5077683;28;20204;-67
2023/07/18 07:18:24;;;;;;;1.40;0.68;;;;;;;24.22;65.45;96668.56;5077174;28;20255;-67
2023/07/18 07:20:51;;;;;;;1.23;0.70;;;;;;;24.26;63.39;96664.31;5077663;28;20227;-67
2023/07/18 07:23:19;;;;;;;1.85;0.70;;;;;;;24.71;65.23;96660.28;5077694;28;20280;-67
2023/07/18 07:25:46;;;;;;;1.08;0.63;;;;;;;24.46;65.11;96662.69;5078304;28;20204;-68
2023/07/18 07:28:12;;;;;;;0.85;0.70;;;;;;;24.42;63.34;96660.78;5077745;28;20200;-67
2023/07/18 07:30:39;;;;;;;1.67;0.75;;;;;;;24.78;65.48;96653.63;5077280;28;20613;-67
2023/07/18 07:33:06;;;;;;;1.00;0.65;;;;;;;24.92;64.76;96652.09;5077667;28;20563;-67
2023/07/18 07:35:33;;;;;;;0.93;0.73;;;;;;;24.88;61.70;96645.59;5077956;28;20208;-67
2023/07/18 07:38:00;;;;;;;1.85;0.70;;;;;;;25.18;58.34;96648.63;5077446;28;20219;-67
2023/07/18 07:40:27;;;;;;;2.22;0.70;;;;;;;25.51;59.58;96648.28;5078761;28;20227;-67
2023/07/18 07:42:55;;;;;;;1.20;0.85;;;;;;;25.14;60.16;96646.66;5077615;28;21141;-67
2023/07/18 07:45:21;;;;;;;1.27;0.65;;;;;;;25.19;58.31;96651.06;5077964;28;20212;-67
2023/07/18 07:47:48;;;;;;;4.10;0.75;;;;;;;25.15;58.53;96646.41;5076401;28;20204;-67
2023/07/18 07:50:15;;;;;;;1.45;1.02;;;;;;;25.23;60.45;96638.66;5075903;28;20227;-67
2023/07/18 07:52:43;;;;;;;4.65;1.17;;;;;;;25.54;58.95;96634.31;5076325;28;20204;-67
2023/07/18 07:55:11;;;;;;;6.00;2.08;;;;;;;25.72;59.95;96633.91;5077565;28;20208;-67
2023/07/18 07:57:39;;;;;;;1.00;0.70;;;;;;;25.40;58.42;96636.63;5076198;28;20262;-67
2023/07/18 08:00:07;;;;;;;1.23;0.80;;;;;;;25.36;60.63;96634.72;5076152;28;20284;-67
2023/07/18 08:02:34;;;;;;;1.45;1.10;;;;;;;25.35;58.24;96628.50;5077210;28;20263;-68
2023/07/18 08:05:00;;;;;;;1.38;0.90;;;;;;;25.72;59.56;96633.91;5077741;28;20204;-67
2023/07/18 08:07:27;;;;;;;2.42;0.88;;;;;;;25.57;58.46;96634.59;5076609;28;20243;-67
2023/07/18 08:09:54;;;;;;;0.95;0.65;;;;;;;25.65;57.56;96633.28;5076632;28;20220;-67
2023/07/18 08:12:21;;;;;;;1.35;0.70;;;;;;;25.94;57.31;96622.69;5077118;28;20235;-67
2023/07/18 08:14:49;;;;;;;1.67;0.70;;;;;;;25.99;57.75;96614.59;5077868;28;20208;-67
2023/07/18 08:17:17;;;;;;;4.80;0.98;;;;;;;25.97;58.39;96607.84;5076751;28;20281;-67
2023/07/18 08:19:44;;;;;;;4.82;1.02;;;;;;;26.00;57.21;96602.69;5077403;28;20235;-67
2023/07/18 08:22:10;;;;;;;2.63;0.90;;;;;;;25.64;57.35;96613.56;5077732;28;20196;-67
2023/07/18 08:24:37;;;;;;;1.00;0.70;;;;;;;25.83;57.33;96599.41;5076950;28;20208;-68
2023/07/18 08:27:04;;;;;;;3.33;0.90;;;;;;;26.28;57.26;96602.28;5076083;28;20202;-67
2023/07/18 08:29:31;;;;;;;1.48;0.80;;;;;;;26.01;58.00;96590.84;5075792;28;20715;-67
2023/07/18 08:31:59;;;;;;;3.40;1.35;;;;;;;26.53;56.42;96596.97;5076901;28;20223;-67
2023/07/18 08:34:26;;;;;;;5.65;1.70;;;;;;;26.67;57.00;96595.38;5076584;28;20577;-67
2023/07/18 08:36:52;;;;;;;2.83;0.70;;;;;;;26.91;54.97;96591.06;5075362;28;20620;-67
2023/07/18 08:39:19;;;;;;;1.52;0.98;;;;;;;26.59;57.86;96583.19;5075815;28;20858;-67
2023/07/18 08:41:47;;;;;;;2.70;0.82;;;;;;;26.83;54.19;96578.06;5075711;28;20204;-67
2023/07/18 08:44:15;;;;;;;1.80;1.10;;;;;;;26.76;54.88;96577.53;5076877;28;20288;-67
2023/07/18 08:46:45;;;;;;;1.63;0.63;;;;;;;26.46;51.88;96578.31;5076381;28;20199;-67
2023/07/18 08:49:14;;;;;;;4.13;0.70;;;;;;;26.86;52.86;96561.28;5075510;28;20227;-67
2023/07/18 08:51:41;;;;;;;0.98;0.70;;;;;;;26.79;57.10;96560.75;5075071;28;20236;-67
2023/07/18 08:54:08;;;;;;;5.75;1.10;;;;;;;26.53;53.81;96556.44;5075145;28;20798;-67
2023/07/18 08:56:34;;;;;;;1.52;0.82;;;;;;;27.10;52.69;96564.03;5074783;28;20348;-67
2023/07/18 08:59:02;;;;;;;6.45;0.95;;;;;;;27.56;52.24;96562.06;5074453;28;20643;-67
2023/07/18 09:01:29;;;;;;;0.90;0.70;;;;;;;27.37;51.84;96569.97;5076181;28;20207;-67
2023/07/18 09:03:55;;;;;;;2.47;0.88;;;;;;;27.14;53.17;96557.00;5075377;28;20207;-67
2023/07/18 09:06:24;;;;;;;3.10;1.20;;;;;;;27.29;55.18;96562.41;5077645;28;20289;-67
2023/07/18 09:08:50;;;;;;;2.92;1.15;;;;;;;27.48;53.57;96554.50;5076165;28;20203;-67
2023/07/18 09:11:21;;;;;;;2.25;1.02;;;;;;;27.86;52.68;96552.78;5075830;28;20200;-68
2023/07/18 09:13:48;;;;;;;1.83;0.90;;;;;;;27.58;53.77;96555.31;5077454;28;20204;-67
2023/07/18 09:16:17;;;;;;;1.15;0.73;;;;;;;27.91;53.95;96550.03;5077353;28;20210;-67
2023/07/18 09:18:44;;;;;;;1.52;0.60;;;;;;;27.75;55.20;96542.28;5075245;28;20277;-67
2023/07/18 09:21:12;;;;;;;1.75;0.95;;;;;;;27.65;55.88;96534.19;5075841;28;20207;-67
2023/07/18 09:23:45;;;;;;;1.17;0.88;;;;;;;28.32;56.14;96520.88;5077400;28;20328;-67
2023/07/18 09:26:15;;;;;;;3.88;1.17;;;;;;;28.28;53.87;96528.75;5076563;28;20208;-67
2023/07/18 09:28:42;;;;;;;1.33;0.80;;;;;;;27.97;55.92;96540.00;5076071;28;20204;-67
2023/07/18 09:31:18;;;;;;;9.63;1.40;;;;;;;28.81;53.01;96534.09;5076909;28;20212;-67
2023/07/18 09:33:46;;;;;;;1.40;0.80;;;;;;;28.44;51.06;96531.09;5076767;28;20282;-68
2023/07/18 09:36:17;;;;;;;1.77;0.80;;;;;;;29.03;50.94;96526.31;5076789;28;20211;-67
2023/07/18 09:38:46;;;;;;;2.55;1.10;;;;;;;28.74;52.22;96525.50;5075834;28;20224;-67
2023/07/18 09:41:14;;;;;;;1.35;0.70;;;;;;;28.33;53.61;96530.63;5076718;28;21215;-67
2023/07/18 09:43:43;;;;;;;2.50;1.13;;;;;;;28.73;54.68;96521.16;5076315;28;20204;-67
2023/07/18 09:46:13;;;;;;;2.15;1.08;;;;;;;28.68;52.93;96525.75;5079211;28;20219;-67
2023/07/18 09:48:40;;;;;;;2.35;1.00;;;;;;;28.72;53.50;96527.63;5078815;28;20200;-68
2023/07/18 09:51:09;;;;;;;2.13;1.00;;;;;;;28.57;55.66;96533.16;5078957;28;20208;-67
2023/07/18 09:53:37;;;;;;;2.15;0.93;;;;;;;28.51;53.39;96526.16;5079423;28;20749;-67
2023/07/18 09:56:06;;;;;;;1.90;1.02;;;;;;;28.78;52.08;96523.84;5080013;28;21054;-67
2023/07/18 09:58:38;;;;;;;6.13;1.25;;;;;;;29.23;51.87;96532.38;5078674;28;20223;-67
2023/07/18 10:01:06;;;;;;;2.40;1.10;;;;;;;29.15;50.92;96526.72;5079250;28;20723;-67
2023/07/18 10:03:33;;;;;;;2.75;0.90;;;;;;;29.28;47.68;96518.75;5079927;28;20200;-67
2023/07/18 10:05:59;;;;;;;2.72;1.13;;;;;;;29.13;49.46;96527.03;5079073;28;20207;-67
2023/07/18 10:08:26;;;;;;;2.00;0.90;;;;;;;29.49;52.03;96531.03;5078341;28;20221;-67
2023/07/18 10:11:04;;;;;;;2.55;1.58;;;;;;;30.26;52.14;96523.31;5079373;28;20220;-67
2023/07/18 10:13:41;;;;;;;1.45;0.90;;;;;;;29.84;53.18;96525.22;5079134;28;20200;-67
2023/07/18 10:16:19;;;;;;;2.17;1.08;;;;;;;29.74;52.69;96523.41;5079318;28;20612;-67
2023/07/18 10:18:45;;;;;;;4.40;0.85;;;;;;;29.80;52.78;96533.13;5078169;28;20227;-67
2023/07/18 10:21:13;;;;;;;2.22;1.00;;;;;;;30.20;50.72;96526.41;5078670;28;20204;-67
2023/07/18 10:23:41;;;;;;;6.25;1.30;;;;;;;30.48;50.17;96524.38;5078886;28;20303;-67
2023/07/18 10:26:08;;;;;;;2.35;0.80;;;;;;;30.29;50.96;96525.44;5080146;28;20204;-67
2023/07/18 10:28:47;;;;;;;2.72;1.35;;;;;;;30.13;49.08;96532.22;5077740;28;20204;-67
2023/07/18 10:31:30;;;;;;;2.72;1.20;;;;;;;30.80;48.47;96537.22;5078411;28;20219;-67
2023/07/18 10:34:10;;;;;;;2.70;1.10;;;;;;;31.02;48.08;96541.78;5079394;28;20211;-68
2023/07/18 10:36:38;;;;;;;2.20;0.98;;;;;;;30.33;48.37;96553.66;5078813;28;20204;-68
2023/07/18 10:39:12;;;;;;;1.63;1.02;;;;;;;30.39;48.23;96563.38;5077396;28;20699;-67
2023/07/18 10:41:43;;;;;;;1.52;0.98;;;;;;;30.28;49.12;96542.84;5079059;28;20218;-68
2023/07/18 10:44:12;;;;;;;3.53;0.90;;;;;;;30.34;50.20;96534.34;5078884;28;20238;-68
2023/07/18 10:46:40;;;;;;;6.07;1.60;;;;;;;30.07;51.56;96538.81;5078475;28;20204;-68
2023/07/18 10:49:07;;;;;;;2.15;1.08;;;;;;;29.99;48.74;96531.31;5077920;28;20219;-69
2023/07/18 10:51:35;;;;;;;2.72;1.23;;;;;;;29.85;50.94;96537.69;5078651;28;20208;-67
2023/07/18 10:54:02;;;;;;;2.47;1.20;;;;;;;29.68;50.05;96524.59;5078084;28;20675;-68
2023/07/18 10:56:29;;;;;;;2.10;1.40;;;;;;;29.66;49.35;96494.16;5078812;28;20289;-67
2023/07/18 10:58:56;;;;;;;1.80;1.00;;;;;;;29.55;52.96;96474.75;5076647;28;20220;-67
2023/07/18 11:01:26;;;;;;;1.55;1.20;;;;;;;29.14;52.57;96427.41;5077999;28;20211;-68
2023/07/18 11:03:52;;;;;;;3.10;1.60;;;;;;;29.25;52.67;96451.44;5078555;28;20261;-68
2023/07/18 11:06:21;;;;;;;2.20;1.25;;;;;;;29.05;51.08;96442.72;5078434;28;20686;-68
2023/07/18 11:08:48;;;;;;;2.63;1.40;;;;;;;29.44;53.33;96440.66;5077292;28;20203;-67
2023/07/18 11:11:18;;;;;;;1.65;1.00;;;;;;;29.92;50.74;96443.06;5077676;28;20230;-67
2023/07/18 11:13:44;;;;;;;2.35;0.98;;;;;;;30.04;50.87;96444.25;5077737;28;20195;-68
2023/07/18 11:16:13;;;;;;;1.85;1.00;;;;;;;30.06;51.91;96436.59;5078067;28;20624;-68
2023/07/18 11:18:43;;;;;;;2.53;1.23;;;;;;;30.34;51.84;96419.31;5077167;28;20249;-68
2023/07/18 11:21:10;;;;;;;2.25;1.13;;;;;;;30.16;50.83;96378.56;5077771;28;20199;-68
2023/07/18 11:23:38;;;;;;;1.65;1.17;;;;;;;30.50;51.89;96349.97;5077852;28;20203;-68
2023/07/18 11:26:13;;;;;;;2.97;1.40;;;;;;;29.70;50.61;96326.75;5077294;28;21066;-68
2023/07/18 11:28:40;;;;;;;3.00;1.40;;;;;;;29.01;52.10;96316.84;5076965;28;20264;-68
2023/07/18 11:31:07;;;;;;;5.25;1.20;;;;;;;29.40;52.92;96314.72;5077345;28;20318;-68